createdAt,value
2018-07-21T00:03:00.134Z,3.83
2018-07-21T00:08:04.876Z,3.90
2018-07-21T00:13:09.672Z,4.03
2018-07-21T00:18:14.514Z,4.30
2018-07-21T00:23:19.739Z,4.53
2018-07-21T00:28:36.356Z,5.00
2018-07-21T00:34:06.183Z,4.67
2018-07-21T00:39:15.396Z,4.20
2018-07-21T00:44:26.434Z,3.93
2018-07-21T00:49:33.358Z,4.27
2018-07-21T00:54:38.067Z,4.13
2018-07-21T00:59:42.845Z,4.23
2018-07-21T01:04:47.587Z,3.87
2018-07-21T01:09:52.342Z,4.13
2018-07-21T01:14:57.033Z,4.03
2018-07-21T01:20:01.762Z,4.63
2018-07-21T01:25:08.170Z,4.40
2018-07-21T01:30:12.929Z,4.27
2018-07-21T01:35:17.612Z,4.30
2018-07-21T01:40:22.292Z,4.47
2018-07-21T01:45:27.108Z,4.83
2018-07-21T01:50:31.818Z,5.20
2018-07-21T01:55:36.555Z,5.30
2018-07-21T02:00:41.327Z,5.50
2018-07-21T02:05:46.069Z,4.93
2018-07-21T02:10:50.766Z,5.20
2018-07-21T02:15:55.417Z,5.07
2018-07-21T02:21:00.116Z,4.60
2018-07-21T02:26:04.929Z,4.80
2018-07-21T02:31:09.760Z,4.60
2018-07-21T02:36:14.581Z,5.00
2018-07-21T02:41:19.307Z,5.23
2018-07-21T02:46:24.041Z,5.33
2018-07-21T02:51:28.833Z,4.50
2018-07-21T02:56:33.487Z,5.13
2018-07-21T03:01:38.260Z,4.80
2018-07-21T03:06:43.015Z,5.40
2018-07-21T03:11:47.755Z,6.07
2018-07-21T03:16:52.081Z,5.37
2018-07-21T03:21:56.509Z,5.20
2018-07-21T03:27:01.219Z,5.07
2018-07-21T03:32:05.911Z,5.40
2018-07-21T03:37:10.253Z,4.77
2018-07-21T03:42:14.985Z,5.20
2018-07-21T03:47:20.282Z,5.80
2018-07-21T03:52:24.989Z,4.73
2018-07-21T03:57:29.679Z,5.20
2018-07-21T04:02:34.355Z,4.67
2018-07-21T04:07:39.073Z,5.57
2018-07-21T04:12:43.771Z,5.07
2018-07-21T04:17:48.434Z,4.93
2018-07-21T04:22:53.192Z,5.30
2018-07-21T04:27:58.000Z,5.23
2018-07-21T04:33:02.700Z,5.30
2018-07-21T04:38:07.745Z,5.60
2018-07-21T04:43:12.488Z,6.57
2018-07-21T04:48:17.423Z,5.80
2018-07-21T04:53:22.292Z,12.50
2018-07-21T04:58:27.144Z,6.30
2018-07-21T05:03:31.960Z,7.77
2018-07-21T05:08:36.618Z,7.30
2018-07-21T05:13:41.344Z,6.67
2018-07-21T05:18:46.348Z,8.07
2018-07-21T05:23:51.083Z,6.87
2018-07-21T05:28:55.810Z,6.70
2018-07-21T05:34:00.606Z,6.33
2018-07-21T05:39:07.394Z,6.30
2018-07-21T05:44:12.148Z,28.87
2018-07-21T05:49:16.916Z,7.10
2018-07-21T05:54:21.688Z,6.03
2018-07-21T05:59:26.534Z,5.30
2018-07-21T06:04:31.290Z,5.83
2018-07-21T06:09:35.991Z,5.77
2018-07-21T06:14:40.699Z,5.80
2018-07-21T06:19:45.467Z,5.10
2018-07-21T06:24:50.188Z,5.00
2018-07-21T06:29:55.045Z,5.27
2018-07-21T06:34:59.803Z,6.20
2018-07-21T06:40:05.036Z,5.77
2018-07-21T06:45:09.803Z,6.40
2018-07-21T06:50:14.517Z,6.20
2018-07-21T06:55:19.530Z,5.93
2018-07-21T07:00:24.304Z,6.30
2018-07-21T07:05:29.094Z,6.07
2018-07-21T07:10:34.050Z,6.50
2018-07-21T07:15:38.698Z,7.27
2018-07-21T07:20:43.435Z,6.50
2018-07-21T07:25:48.205Z,5.87
2018-07-21T07:30:52.945Z,5.87
2018-07-21T07:35:57.719Z,5.93
2018-07-21T07:41:02.427Z,6.20
2018-07-21T07:46:07.259Z,6.23
2018-07-21T07:51:12.091Z,5.90
2018-07-21T07:56:19.849Z,5.70
2018-07-21T08:01:24.606Z,6.37
2018-07-21T08:06:29.399Z,5.80
2018-07-21T08:11:34.102Z,6.33
2018-07-21T08:16:38.783Z,6.40
2018-07-21T08:21:44.027Z,5.90
2018-07-21T08:26:48.739Z,6.30
2018-07-21T08:31:53.606Z,6.50
2018-07-21T08:36:59.271Z,6.60
2018-07-21T08:42:04.075Z,6.60
2018-07-21T08:47:12.464Z,5.93
2018-07-21T08:52:17.191Z,6.47
2018-07-21T08:57:21.864Z,6.77
2018-07-21T09:02:26.621Z,6.37
2018-07-21T09:07:31.417Z,6.47
2018-07-21T09:12:36.190Z,6.80
2018-07-21T09:17:40.980Z,6.03
2018-07-21T09:22:45.736Z,6.67
2018-07-21T09:27:50.536Z,7.10
2018-07-21T09:32:55.333Z,6.63
2018-07-21T09:38:00.151Z,7.27
2018-07-21T09:43:04.829Z,7.40
2018-07-21T09:48:09.723Z,7.40
2018-07-21T09:53:14.422Z,7.33
2018-07-21T09:58:19.120Z,7.27
2018-07-21T10:03:23.900Z,7.43
2018-07-21T10:08:28.639Z,7.17
2018-07-21T10:13:33.287Z,7.00
2018-07-21T10:18:38.012Z,6.63
2018-07-21T10:23:42.792Z,7.50
2018-07-21T10:28:52.627Z,6.57
2018-07-21T10:33:57.362Z,7.07
2018-07-21T10:39:02.289Z,7.40
2018-07-21T10:44:07.083Z,7.20
2018-07-21T10:49:11.834Z,7.73
2018-07-21T10:54:16.605Z,7.47
2018-07-21T10:59:21.661Z,6.93
2018-07-21T11:04:26.367Z,6.03
2018-07-21T11:09:31.237Z,6.77
2018-07-21T11:14:36.200Z,6.10
2018-07-21T11:19:40.892Z,7.23
2018-07-21T11:24:45.612Z,6.30
2018-07-21T11:29:50.399Z,6.50
2018-07-21T11:34:55.132Z,7.13
2018-07-21T11:40:00.086Z,6.97
2018-07-21T11:45:05.072Z,7.00
2018-07-21T11:50:10.332Z,6.50
2018-07-21T11:55:15.204Z,6.73
2018-07-21T12:00:19.649Z,7.03
2018-07-21T12:05:24.503Z,6.73
2018-07-21T12:10:29.319Z,6.93
2018-07-21T12:15:34.030Z,6.40
2018-07-21T12:20:38.895Z,6.33
2018-07-21T12:25:46.030Z,6.87
2018-07-21T12:30:50.971Z,6.80
2018-07-21T12:35:55.367Z,6.60
2018-07-21T12:41:00.290Z,6.63
2018-07-21T12:46:05.386Z,6.70
2018-07-21T12:51:11.035Z,7.17
2018-07-21T12:56:15.854Z,7.17
2018-07-21T13:01:20.553Z,7.13
2018-07-21T13:06:25.312Z,8.17
2018-07-21T13:11:30.087Z,7.23
2018-07-21T13:16:35.089Z,7.70
2018-07-21T13:21:39.821Z,7.53
2018-07-21T13:26:44.654Z,7.23
2018-07-21T13:31:49.586Z,8.80
2018-07-21T13:36:54.436Z,7.93
2018-07-21T13:41:59.154Z,8.63
2018-07-21T13:47:03.830Z,9.07
2018-07-21T13:52:08.715Z,10.33
2018-07-21T13:57:13.398Z,10.13
2018-07-21T14:02:18.575Z,10.33
2018-07-21T14:07:23.355Z,9.77
2018-07-21T14:12:28.137Z,9.07
2018-07-21T14:17:32.894Z,9.47
2018-07-21T14:22:39.410Z,9.87
2018-07-21T14:27:44.249Z,8.50
2018-07-21T14:32:49.132Z,9.10
2018-07-21T14:37:53.840Z,8.60
2018-07-21T14:42:58.570Z,9.37
2018-07-21T14:48:03.465Z,9.20
2018-07-21T14:53:08.548Z,8.53
2018-07-21T14:58:13.322Z,9.17
2018-07-21T15:03:18.116Z,8.83
2018-07-21T15:08:22.892Z,9.30
2018-07-21T15:13:27.646Z,8.97
2018-07-21T15:18:32.387Z,9.47
2018-07-21T15:23:37.235Z,8.87
2018-07-21T15:28:42.068Z,8.70
2018-07-21T15:33:46.885Z,7.93
2018-07-21T15:38:51.618Z,8.93
2018-07-21T15:43:56.643Z,8.17
2018-07-21T15:49:08.729Z,7.77
2018-07-21T15:54:13.426Z,7.80
2018-07-21T15:59:18.175Z,6.87
2018-07-21T16:04:22.925Z,6.70
2018-07-21T16:09:27.666Z,5.77
2018-07-21T16:14:32.487Z,5.77
2018-07-21T16:19:37.217Z,5.97
2018-07-21T16:24:42.153Z,5.87
2018-07-21T16:29:47.179Z,6.57
2018-07-21T16:34:51.951Z,6.40
2018-07-21T16:39:56.692Z,6.23
2018-07-21T16:45:01.389Z,6.23
2018-07-21T16:50:06.609Z,6.70
2018-07-21T16:55:11.473Z,6.73
2018-07-21T17:00:16.365Z,6.70
2018-07-21T17:05:21.271Z,5.73
2018-07-21T17:10:26.079Z,6.90
2018-07-21T17:15:30.825Z,7.07
2018-07-21T17:20:35.554Z,6.57
2018-07-21T17:25:40.331Z,6.80
2018-07-21T17:30:45.107Z,6.63
2018-07-21T17:35:49.923Z,7.13
2018-07-21T17:40:54.707Z,6.17
2018-07-21T17:45:59.487Z,6.67
2018-07-21T17:51:04.249Z,6.73
2018-07-21T17:56:09.049Z,6.37
2018-07-21T18:01:13.780Z,6.70
2018-07-21T18:06:18.482Z,7.00
2018-07-21T18:11:23.086Z,7.57
2018-07-21T18:16:27.950Z,7.93
2018-07-21T18:21:32.348Z,8.13
2018-07-21T18:26:37.174Z,8.20
2018-07-21T18:31:41.994Z,7.77
2018-07-21T18:36:46.703Z,7.50
2018-07-21T18:41:51.451Z,7.63
2018-07-21T18:46:56.279Z,7.17
2018-07-21T18:52:00.998Z,7.20
2018-07-21T18:57:05.810Z,8.30
2018-07-21T19:02:10.608Z,8.50
2018-07-21T19:07:15.322Z,7.97
2018-07-21T19:12:25.284Z,7.33
2018-07-21T19:17:30.733Z,8.10
2018-07-21T19:22:35.451Z,7.33
2018-07-21T19:27:40.345Z,7.97
2018-07-21T19:32:50.328Z,7.37
2018-07-21T19:37:55.109Z,7.73
2018-07-21T19:42:59.937Z,8.77
2018-07-21T19:48:04.669Z,8.90
2018-07-21T19:53:09.594Z,9.20
2018-07-21T19:58:14.401Z,8.63
2018-07-21T20:03:19.013Z,9.43
2018-07-21T20:08:23.855Z,10.40
2018-07-21T20:13:28.882Z,10.47
2018-07-21T20:18:33.759Z,10.80
2018-07-21T20:23:38.455Z,11.53
2018-07-21T20:28:43.282Z,11.20
2018-07-21T20:33:48.113Z,11.13
2018-07-21T20:38:52.898Z,10.87
2018-07-21T20:43:57.680Z,10.83
2018-07-21T20:49:02.480Z,11.47
2018-07-21T20:54:07.257Z,11.80
2018-07-21T20:59:11.936Z,11.77
2018-07-21T21:04:16.688Z,11.43
2018-07-21T21:09:21.368Z,11.87
2018-07-21T21:14:26.082Z,11.00
2018-07-21T21:19:30.846Z,11.80
2018-07-21T21:24:35.300Z,11.57
2018-07-21T21:29:40.007Z,11.43
2018-07-21T21:34:44.828Z,11.20
2018-07-21T21:39:49.594Z,13.03
2018-07-21T21:44:54.362Z,12.43
2018-07-21T21:49:59.106Z,12.70
2018-07-21T21:55:03.643Z,12.90
2018-07-21T22:00:10.699Z,14.40
2018-07-21T22:05:15.456Z,13.60
2018-07-21T22:10:20.327Z,13.70
2018-07-21T22:15:25.084Z,11.47
2018-07-21T22:20:29.823Z,12.50
2018-07-21T22:25:34.589Z,12.00
2018-07-21T22:30:39.350Z,12.30
2018-07-21T22:35:44.108Z,13.37
2018-07-21T22:40:48.900Z,13.73
2018-07-21T22:45:53.783Z,13.97
2018-07-21T22:50:58.692Z,14.13
2018-07-21T22:56:03.086Z,14.67
2018-07-21T23:01:07.902Z,13.93
2018-07-21T23:06:12.686Z,12.73
2018-07-21T23:11:17.447Z,12.70
2018-07-21T23:16:22.215Z,11.60
2018-07-21T23:21:27.252Z,11.60
2018-07-21T23:26:32.050Z,11.33
2018-07-21T23:31:36.800Z,10.73
2018-07-21T23:36:41.560Z,10.17
2018-07-21T23:41:46.386Z,10.40
2018-07-21T23:46:51.089Z,12.33
2018-07-21T23:51:55.907Z,12.00
2018-07-21T23:57:00.635Z,10.97
